Aviation Digital Data Service (ADDS)

Output produced by METARs form (1343 UTC 09 February 2016)
found at http://aviationweather.gov/adds/metars/
 
KDAG 091250Z AUTO 26005KT 10SM CLR 05/M04 A3032 RMK AO2 SLP258 T00501044
KDAG 091120Z 0912/1012 27007KT P6SM SKC 
     FM091800 VRB05KT P6SM SKC 
     FM101000 27007KT P6SM SKC
       
KEDW 091258Z AUTO 17004KT 10SM CLR 01/M06 A3032 RMK AO2 SLP265 T00081056
TAF KEDW 091006Z 0910/1016 VRB06KT 9999 SKC QNH3029INS 
     BECMG 0918/0919 05009KT 9999 SKC QNH3022INS 
     BECMG 1000/1001 VRB06KT 9999 FEW250 QNH3022INS TX20/0921Z TN02/0914Z
       
KVCV 091335Z AUTO 00000KT 10SM 03/M05 A3034 RMK AO2
KONT 091253Z 00000KT 10SM CLR 10/M02 A3015 RMK AO2 SLP203 T01001022
KONT 091120Z 0912/1018 VRB05KT P6SM SKC WS020/06025KT 
     FM091600 04008KT P6SM SKC 
     FM092000 VRB06KT P6SM SKC
       
KNID 091256Z AUTO 27003KT 10SM CLR 03/M03 A3033 RMK AO2 SLP271 T00331033 $
TAF KNID 0823/0923 09010KT 9999 SKC QNH3026INS 
     BECMG 0901/0903 VRB06KT SKC QNH3024INS T02/0914Z T21/0922Z
       
KSNA 091253Z AUTO 00000KT 10SM CLR 13/01 A3010 RMK AO2 SLP192 T01280011 TSNO
KSNA 091120Z 0912/1012 VRB05KT P6SM SKC 
     FM092000 24007KT P6SM SKC WS020/08015KT 
     FM100100 VRB04KT P6SM SKC
       
KSAN 091251Z 01003KT 10SM CLR 14/M01 A3012 RMK AO2 SLP198 T01441006 $
KSAN 091120Z 0912/1018 VRB04KT P6SM SKC 
     FM092000 30008KT P6SM SKC 
     FM100100 VRB04KT P6SM SKC
       
KNXP 091256Z AUTO 31006KT 10SM CLR 09/M06 A3037 RMK AO2 SLP262 T00941056 $
TAF KNXP 0909/1009 30010KT 9999 FEW250 QNH3027INS AUTOMATED SENSOR METWATCH 0909 TIL 0915 T10/0914Z T24/0922Z
       
KPSP 091253Z AUTO 27004KT 10SM CLR 18/M04 A3021 RMK AO2 SLP227 T01831039 TSNO
KPSP 091120Z 0912/1012 VRB06KT P6SM SKC
       
KLAX 091253Z 05006KT 10SM CLR 18/M04 A3011 RMK AO2 SLP193 T01831044
KLAX 091134Z 0912/1018 VRB03KT P6SM SKC 
     FM091400 05004KT P6SM SKC 
     FM092100 27008KT P6SM SKC 
     FM100300 VRB03KT P6SM SKC
       
KCNO 091253Z AUTO 34003KT 7SM CLR 07/01 A3016 RMK AO2 SLP211 T00720011
KSMO 091251Z AUTO 07004KT 10SM CLR 14/M01 A3011 RMK AO2 SLP195 T01441006 $
KLGB 091253Z AUTO 30003KT 10SM CLR 14/00 A3011 RMK AO2 SLP194 T01390000 TSNO
KLGB 091134Z 0912/1012 VRB03KT P6SM SKC 
     FM100000 30006KT P6SM SKC 
     FM100300 VRB03KT P6SM FEW250
       
KVNY 091251Z 27004KT 10SM CLR 14/M02 A3013 RMK AO2 SLP198 T01441022
KVNY 091134Z 0912/1012 36010KT P6SM SKC
       
KBUR 091253Z 00000KT 10SM CLR 12/M02 A3013 RMK AO2 SLP191 T01221022 $
KBUR 091134Z 0912/1012 VRB03KT P6SM SKC
       
KBFL 091254Z AUTO 00000KT 10SM CLR 07/03 A3021 RMK AO2 SLP227 T00670033
KBFL 091130Z 0912/1012 00000KT P6SM SKC 
     TEMPO 0913/0916 4SM BR
       
KPMD 091253Z AUTO 34003KT 10SM CLR 06/M04 A3033 RMK AO2 SLP264 T00561044
KPMD 091134Z 0912/1012 VRB05KT P6SM SKC 
     FM092200 08008KT P6SM SKC 
     FM100300 VRB05KT P6SM SKC
       
KOXR 091251Z AUTO 08009KT 10SM CLR 21/M03 A3011 RMK AO2 SLP195 T02111028 $
KOXR 091134Z 0912/1012 VRB03KT P6SM SKC 
     FM091300 07012G20KT P6SM SKC 
     FM091600 07020G30KT P6SM SKC 
     FM092200 30006KT P6SM FEW010 
     FM100300 VRB03KT P6SM SKC 
     FM101000 04006KT P6SM SKC
       
KWJF 091256Z 26003KT 10SM CLR 01/M04 A3034 RMK AO2 SLP276 T00061039
KWJF 091134Z 0912/1012 VRB05KT P6SM SKC 
     FM092200 05010KT P6SM SKC 
     FM100500 VRB05KT P6SM SKC
       
KCMA 091255Z 08013KT 10SM CLR 22/M04 A3011 RMK AO2 SLP203 T02221044 $
KFAT 091253Z 00000KT 10SM CLR 07/04 A3022 RMK AO2 SLP233 T00720044
KFAT 091130Z 0912/1012 00000KT P6SM SKC 
     FM091400 00000KT 4SM BR SKC 
     TEMPO 0914/0917 2SM BR 
     FM091900 VRB03KT P6SM SKC
       
KEED 091256Z AUTO 36012G20KT 10SM CLR 17/M03 A3026 RMK AO2 SLP227 T01671028
KEED 091120Z 0912/1012 36015KT P6SM SKC 
     FM091600 01018G26KT P6SM SKC 
     FM100200 36012KT P6SM SKC 
     FM100500 32010KT P6SM SKC
       
KLSV 091258Z AUTO 31005KT 10SM CLR 10/M02 A3037 RMK AO2 SLP276 T00991019 $
TAF KLSV 090903Z 0909/1015 05009KT 9999 SKC QNH3032INS 
     BECMG 0917/0918 16009KT 9999 SKC QNH3024INS 
     BECMG 1005/1006 05009KT 9999 SKC QNH3028INS TX23/0923Z TN07/0912Z
       
KLAS 091256Z 23003KT 10SM CLR 09/M03 A3034 RMK AO2 SLP265 T00891028
KLAS 091120Z 0912/1012 VRB05KT P6SM SKC 
     FM092100 05006KT P6SM SKC 
     FM100300 21006KT P6SM SKC
       
KHII 091335Z AUTO 35008KT 10SM CLR 15/M04 A3024 RMK AO2
KIFP 091335Z AUTO 02024G29KT 10SM CLR 17/M03 A3027 RMK AO2
KIFP 091120Z 0912/1012 02021G28KT P6SM SKC 
     FM091600 36026G36KT P6SM SKC 
     FM100200 01016KT P6SM SKC